createdAt,value
2019-05-30T00:00:08.874Z,998.68
2019-05-30T00:00:53.879Z,998.70
2019-05-30T00:01:54.192Z,998.71
2019-05-30T00:02:54.004Z,998.68
2019-05-30T00:03:54.028Z,998.72
2019-05-30T00:04:54.155Z,998.73
2019-05-30T00:05:54.335Z,998.70
2019-05-30T00:06:54.423Z,998.72
2019-05-30T00:07:54.605Z,998.66
2019-05-30T00:08:54.826Z,998.62
2019-05-30T00:09:56.301Z,998.62
2019-05-30T00:10:56.407Z,998.66
2019-05-30T00:11:56.639Z,998.61
2019-05-30T00:12:56.673Z,998.63
2019-05-30T00:13:56.714Z,998.64
2019-05-30T00:14:56.488Z,998.66
2019-05-30T00:15:56.592Z,998.64
2019-05-30T00:16:56.815Z,998.60
2019-05-30T00:17:56.836Z,998.57
2019-05-30T00:18:57.059Z,998.55
2019-05-30T00:19:57.288Z,998.55
2019-05-30T00:20:58.657Z,998.55
2019-05-30T00:21:58.675Z,998.53
2019-05-30T00:22:58.835Z,998.51
2019-05-30T00:23:58.180Z,998.53
2019-05-30T00:24:58.395Z,998.50
2019-05-30T00:25:59.157Z,998.55
2019-05-30T00:27:00.176Z,998.55
2019-05-30T00:27:59.240Z,998.57
2019-05-30T00:29:00.302Z,998.59
2019-05-30T00:29:59.539Z,998.58
2019-05-30T00:31:00.432Z,998.57
2019-05-30T00:31:59.990Z,998.58
2019-05-30T00:33:00.716Z,998.57
2019-05-30T00:34:01.496Z,998.59
2019-05-30T00:35:01.931Z,998.54
2019-05-30T00:36:01.849Z,998.57
2019-05-30T00:37:02.051Z,998.54
2019-05-30T00:38:01.923Z,998.56
2019-05-30T00:39:01.896Z,998.52
2019-05-30T00:40:02.105Z,998.57
2019-05-30T00:41:02.118Z,998.54
2019-05-30T00:42:02.218Z,998.54
2019-05-30T00:43:02.444Z,998.57
2019-05-30T00:44:02.673Z,998.59
2019-05-30T00:45:11.317Z,998.58
2019-05-30T00:46:04.111Z,998.60
2019-05-30T00:47:04.435Z,998.61
2019-05-30T00:48:04.402Z,998.56
2019-05-30T00:49:04.548Z,998.58
2019-05-30T00:50:04.423Z,998.57
2019-05-30T00:51:04.670Z,998.59
2019-05-30T00:52:05.121Z,998.59
2019-05-30T00:53:05.353Z,998.58
2019-05-30T00:54:04.916Z,998.61
2019-05-30T00:55:05.142Z,998.58
2019-05-30T00:56:05.368Z,998.58
2019-05-30T00:57:06.867Z,998.60
2019-05-30T00:58:07.329Z,998.62
2019-05-30T00:59:06.960Z,998.63
2019-05-30T01:00:07.135Z,998.67
2019-05-30T01:01:07.117Z,998.63
2019-05-30T01:02:07.031Z,998.66
2019-05-30T01:03:09.039Z,998.63
2019-05-30T01:04:07.231Z,998.63
2019-05-30T01:05:08.057Z,998.58
2019-05-30T01:06:07.643Z,998.64
2019-05-30T01:07:07.867Z,998.61
2019-05-30T01:08:08.089Z,998.60
2019-05-30T01:09:08.311Z,998.59
2019-05-30T01:10:08.537Z,998.65
2019-05-30T01:11:08.767Z,998.62
2019-05-30T01:12:08.992Z,998.63
2019-05-30T01:13:09.217Z,998.65
2019-05-30T01:14:09.442Z,998.64
2019-05-30T01:15:09.657Z,998.68
2019-05-30T01:16:09.879Z,998.66
2019-05-30T01:17:10.097Z,998.66
2019-05-30T01:18:10.321Z,998.67
2019-05-30T01:19:10.543Z,998.69
2019-05-30T01:20:10.773Z,998.66
2019-05-30T01:21:10.992Z,998.71
2019-05-30T01:22:11.214Z,998.70
2019-05-30T01:23:11.446Z,998.73
2019-05-30T01:24:11.659Z,998.68
2019-05-30T01:25:11.886Z,998.67
2019-05-30T01:26:12.107Z,998.67
2019-05-30T01:27:12.330Z,998.63
2019-05-30T01:28:12.553Z,998.60
2019-05-30T01:29:12.778Z,998.61
2019-05-30T01:30:12.997Z,998.62
2019-05-30T01:31:13.231Z,998.61
2019-05-30T01:32:13.445Z,998.59
2019-05-30T01:33:13.666Z,998.59
2019-05-30T01:34:13.891Z,998.54
2019-05-30T01:35:14.113Z,998.58
2019-05-30T01:36:14.339Z,998.55
2019-05-30T01:37:14.564Z,998.56
2019-05-30T01:38:14.787Z,998.59
2019-05-30T01:39:15.007Z,998.56
2019-05-30T01:40:15.228Z,998.54
2019-05-30T01:41:17.539Z,998.55
2019-05-30T01:42:15.669Z,998.57
2019-05-30T01:43:15.883Z,998.56
2019-05-30T01:44:16.110Z,998.51
2019-05-30T01:45:16.331Z,998.54
2019-05-30T01:46:16.556Z,998.49
2019-05-30T01:47:16.779Z,998.50
2019-05-30T01:48:17.002Z,998.49
2019-05-30T01:49:17.224Z,998.46
2019-05-30T01:50:17.449Z,998.49
2019-05-30T01:51:17.685Z,998.50
2019-05-30T01:52:17.896Z,998.49
2019-05-30T01:53:18.119Z,998.48
2019-05-30T01:54:18.341Z,998.48
2019-05-30T01:55:18.567Z,998.47
2019-05-30T01:56:18.790Z,998.48
2019-05-30T01:57:19.012Z,998.48
2019-05-30T01:58:19.238Z,998.48
2019-05-30T01:59:19.459Z,998.46
2019-05-30T02:00:21.548Z,998.41
2019-05-30T02:01:25.093Z,998.43
2019-05-30T02:02:20.124Z,998.41
2019-05-30T02:03:20.350Z,998.46
2019-05-30T02:04:20.570Z,998.43
2019-05-30T02:05:20.793Z,998.48
2019-05-30T02:06:21.014Z,998.46
2019-05-30T02:07:21.239Z,998.45
2019-05-30T02:08:21.460Z,998.46
2019-05-30T02:09:21.688Z,998.46
2019-05-30T02:10:21.912Z,998.46
2019-05-30T02:11:22.128Z,998.48
2019-05-30T02:12:22.350Z,998.45
2019-05-30T02:13:22.575Z,998.43
2019-05-30T02:14:22.787Z,998.40
2019-05-30T02:15:23.031Z,998.44
2019-05-30T02:16:23.254Z,998.42
2019-05-30T02:17:23.479Z,998.47
2019-05-30T02:18:23.700Z,998.45
2019-05-30T02:19:23.920Z,998.42
2019-05-30T02:20:24.141Z,998.49
2019-05-30T02:21:24.364Z,998.52
2019-05-30T02:22:24.591Z,998.46
2019-05-30T02:23:24.815Z,998.47
2019-05-30T02:24:25.041Z,998.49
2019-05-30T02:25:25.268Z,998.49
2019-05-30T02:26:25.491Z,998.48
2019-05-30T02:27:25.709Z,998.47
2019-05-30T02:28:25.935Z,998.44
2019-05-30T02:29:26.161Z,998.44
2019-05-30T02:30:26.384Z,998.44
2019-05-30T02:31:38.545Z,998.46
2019-05-30T02:32:26.833Z,998.48
2019-05-30T02:33:27.057Z,998.49
2019-05-30T02:34:27.284Z,998.54
2019-05-30T02:35:27.502Z,998.55
2019-05-30T02:36:27.726Z,998.54
2019-05-30T02:37:27.949Z,998.56
2019-05-30T02:38:28.179Z,998.58
2019-05-30T02:39:28.396Z,998.57
2019-05-30T02:40:28.620Z,998.60
2019-05-30T02:41:28.852Z,998.59
2019-05-30T02:42:29.064Z,998.59
2019-05-30T02:43:29.297Z,998.59
2019-05-30T02:44:29.514Z,998.54
2019-05-30T02:45:29.741Z,998.53
2019-05-30T02:46:29.958Z,998.54
2019-05-30T02:47:30.181Z,998.54
2019-05-30T02:48:30.410Z,998.55
2019-05-30T02:49:30.635Z,998.57
2019-05-30T02:50:30.859Z,998.59
2019-05-30T02:51:31.087Z,998.58
2019-05-30T02:52:31.303Z,998.54
2019-05-30T02:53:31.526Z,998.54
2019-05-30T02:54:31.753Z,998.55
2019-05-30T02:55:31.972Z,998.53
2019-05-30T02:56:32.197Z,998.54
2019-05-30T02:57:32.421Z,998.59
2019-05-30T02:58:32.645Z,998.56
2019-05-30T02:59:32.868Z,998.56
2019-05-30T03:00:33.102Z,998.55
2019-05-30T03:01:33.312Z,998.53
2019-05-30T03:02:33.548Z,998.56
2019-05-30T03:03:33.759Z,998.51
2019-05-30T03:04:33.987Z,998.57
2019-05-30T03:05:34.207Z,998.56
2019-05-30T03:06:34.436Z,998.58
2019-05-30T03:07:34.653Z,998.62
2019-05-30T03:08:34.879Z,998.59
2019-05-30T03:09:35.105Z,998.62
2019-05-30T03:10:35.325Z,998.61
2019-05-30T03:11:35.546Z,998.62
2019-05-30T03:12:35.767Z,998.60
2019-05-30T03:13:35.991Z,998.64
2019-05-30T03:14:36.237Z,998.61
2019-05-30T03:15:36.440Z,998.63
2019-05-30T03:16:36.663Z,998.68
2019-05-30T03:17:36.887Z,998.69
2019-05-30T03:18:37.111Z,998.70
2019-05-30T03:19:37.332Z,998.68
2019-05-30T03:20:37.566Z,998.65
2019-05-30T03:21:37.795Z,998.72
2019-05-30T03:22:38.011Z,998.70
2019-05-30T03:23:38.234Z,998.71
2019-05-30T03:24:38.455Z,998.74
2019-05-30T03:25:38.678Z,998.74
2019-05-30T03:26:38.914Z,998.75
2019-05-30T03:27:39.125Z,998.75
2019-05-30T03:28:39.346Z,998.79
2019-05-30T03:29:39.569Z,998.77
2019-05-30T03:30:39.799Z,998.74
2019-05-30T03:31:40.015Z,998.78
2019-05-30T03:33:42.697Z,998.71
2019-05-30T03:34:40.684Z,998.74
2019-05-30T03:35:43.479Z,998.76
2019-05-30T03:36:41.136Z,998.77
2019-05-30T03:37:41.431Z,998.79
2019-05-30T03:38:41.576Z,998.77
2019-05-30T03:39:41.806Z,998.79
2019-05-30T03:40:42.024Z,998.79
2019-05-30T03:41:42.278Z,998.75
2019-05-30T03:42:42.479Z,998.78
2019-05-30T03:43:42.697Z,998.80
2019-05-30T03:44:42.919Z,998.84
2019-05-30T03:45:43.143Z,998.82
2019-05-30T03:46:43.372Z,998.85
2019-05-30T03:47:43.606Z,998.84
2019-05-30T03:48:43.821Z,998.83
2019-05-30T03:49:44.053Z,998.85
2019-05-30T03:50:44.263Z,998.88
2019-05-30T03:51:44.488Z,998.85
2019-05-30T03:52:44.718Z,998.89
2019-05-30T03:53:44.937Z,998.92
2019-05-30T03:54:45.162Z,998.91
2019-05-30T03:55:45.385Z,998.88
2019-05-30T03:56:45.608Z,998.86
2019-05-30T03:57:45.834Z,998.89
2019-05-30T03:58:46.059Z,998.87
2019-05-30T03:59:46.284Z,998.95
2019-05-30T04:00:50.828Z,999.00
2019-05-30T04:01:46.737Z,999.01
2019-05-30T04:02:57.607Z,999.03
2019-05-30T04:03:47.186Z,999.03
2019-05-30T04:04:47.458Z,999.08
2019-05-30T04:05:47.699Z,999.06
2019-05-30T04:06:47.902Z,999.05
2019-05-30T04:07:48.126Z,999.06
2019-05-30T04:08:48.351Z,999.07
2019-05-30T04:09:48.575Z,999.03
2019-05-30T04:10:48.806Z,999.07
2019-05-30T04:11:49.035Z,999.10
2019-05-30T04:12:49.305Z,999.12
2019-05-30T04:13:49.475Z,999.12
2019-05-30T04:14:49.706Z,999.15
2019-05-30T04:15:49.923Z,999.11
2019-05-30T04:16:50.150Z,999.11
2019-05-30T04:17:50.381Z,999.14
2019-05-30T04:18:50.611Z,999.23
2019-05-30T04:19:50.836Z,999.21
2019-05-30T04:20:51.069Z,999.23
2019-05-30T04:21:51.291Z,999.27
2019-05-30T04:22:51.526Z,999.29
2019-05-30T04:23:51.743Z,999.28
2019-05-30T04:24:51.969Z,999.24
2019-05-30T04:25:52.210Z,999.25
2019-05-30T04:26:52.427Z,999.24
2019-05-30T04:27:52.655Z,999.27
2019-05-30T04:28:52.888Z,999.28
2019-05-30T04:29:53.112Z,999.28
2019-05-30T04:30:53.342Z,999.30
2019-05-30T04:31:53.571Z,999.32
2019-05-30T04:32:53.801Z,999.29
2019-05-30T04:33:54.030Z,999.32
2019-05-30T04:34:54.257Z,999.29
2019-05-30T04:35:54.500Z,999.28
2019-05-30T04:36:54.728Z,999.29
2019-05-30T04:37:54.958Z,999.29
2019-05-30T04:38:55.185Z,999.30
2019-05-30T04:39:55.414Z,999.34
2019-05-30T04:40:55.641Z,999.38
2019-05-30T04:41:55.874Z,999.33
2019-05-30T04:42:56.107Z,999.33
2019-05-30T04:43:56.334Z,999.37
2019-05-30T04:44:56.563Z,999.38
2019-05-30T04:45:56.802Z,999.41
2019-05-30T04:46:57.031Z,999.40
2019-05-30T04:47:57.262Z,999.42
2019-05-30T04:48:57.496Z,999.39
2019-05-30T04:49:57.726Z,999.39
2019-05-30T04:50:57.961Z,999.42
2019-05-30T04:51:58.189Z,999.42
2019-05-30T04:52:58.420Z,999.41
2019-05-30T04:53:58.654Z,999.43
2019-05-30T04:54:58.887Z,999.46
2019-05-30T04:55:59.117Z,999.46
2019-05-30T04:56:59.350Z,999.46
2019-05-30T04:57:59.585Z,999.47
2019-05-30T04:58:59.818Z,999.48
2019-05-30T05:00:00.047Z,999.49
2019-05-30T05:01:00.280Z,999.50
2019-05-30T05:02:00.514Z,999.51
2019-05-30T05:03:00.748Z,999.49
2019-05-30T05:04:00.983Z,999.52
2019-05-30T05:05:01.213Z,999.51
2019-05-30T05:06:01.447Z,999.51
2019-05-30T05:07:01.681Z,999.50
2019-05-30T05:08:01.916Z,999.49
2019-05-30T05:09:02.148Z,999.52
2019-05-30T05:10:02.402Z,999.48
2019-05-30T05:11:02.651Z,999.45
2019-05-30T05:12:02.849Z,999.45
2019-05-30T05:13:03.096Z,999.43
2019-05-30T05:14:03.318Z,999.43
2019-05-30T05:15:03.554Z,999.44
2019-05-30T05:16:21.499Z,999.40
2019-05-30T05:17:04.024Z,999.42
2019-05-30T05:18:04.254Z,999.39
2019-05-30T05:19:04.488Z,999.43
2019-05-30T05:20:04.722Z,999.41
2019-05-30T05:21:04.959Z,999.39
2019-05-30T05:22:05.189Z,999.40
2019-05-30T05:23:05.426Z,999.43
2019-05-30T05:24:05.661Z,999.41
2019-05-30T05:25:05.895Z,999.41
2019-05-30T05:26:06.132Z,999.42
2019-05-30T05:27:09.719Z,999.43
2019-05-30T05:28:06.598Z,999.42
2019-05-30T05:29:06.835Z,999.45
2019-05-30T05:30:07.074Z,999.41
2019-05-30T05:31:07.305Z,999.43
2019-05-30T05:32:07.540Z,999.43
2019-05-30T05:33:07.783Z,999.44
2019-05-30T05:34:08.014Z,999.44
2019-05-30T05:35:08.252Z,999.46
2019-05-30T05:36:08.480Z,999.50
2019-05-30T05:37:08.715Z,999.51
2019-05-30T05:38:08.953Z,999.51
2019-05-30T05:39:09.189Z,999.51
2019-05-30T05:40:09.426Z,999.51
2019-05-30T05:41:09.664Z,999.52
2019-05-30T05:42:09.892Z,999.48
2019-05-30T05:43:10.127Z,999.49
2019-05-30T05:44:10.362Z,999.49
2019-05-30T05:45:10.595Z,999.44
2019-05-30T05:46:11.079Z,999.38
2019-05-30T05:47:11.066Z,999.41
2019-05-30T05:48:11.306Z,999.43
2019-05-30T05:49:11.535Z,999.46
2019-05-30T05:50:11.773Z,999.42
2019-05-30T05:51:12.006Z,999.42
2019-05-30T05:52:12.298Z,999.46
2019-05-30T05:53:12.476Z,999.46
2019-05-30T05:54:12.711Z,999.45
2019-05-30T05:55:12.953Z,999.47
2019-05-30T05:56:13.184Z,999.48
2019-05-30T05:57:13.419Z,999.53
2019-05-30T05:58:13.657Z,999.52
2019-05-30T05:59:13.894Z,999.50
2019-05-30T06:00:14.127Z,999.52
2019-05-30T06:01:14.359Z,999.54
2019-05-30T06:02:14.709Z,999.56
2019-05-30T06:03:16.654Z,999.54
2019-05-30T06:04:15.086Z,999.55
2019-05-30T06:05:15.965Z,999.56
2019-05-30T06:06:15.556Z,999.57
2019-05-30T06:07:16.090Z,999.59
2019-05-30T06:08:17.252Z,999.56
2019-05-30T06:09:16.496Z,999.57
2019-05-30T06:10:17.498Z,999.58
2019-05-30T06:11:16.738Z,999.57
2019-05-30T06:12:17.607Z,999.57
2019-05-30T06:13:17.216Z,999.54
2019-05-30T06:14:17.819Z,999.50
2019-05-30T06:15:18.774Z,999.51
2019-05-30T06:16:17.913Z,999.55
2019-05-30T06:17:18.969Z,999.51
2019-05-30T06:18:18.399Z,999.50
2019-05-30T06:19:19.099Z,999.46
2019-05-30T06:20:19.210Z,999.41
2019-05-30T06:21:19.212Z,999.43
2019-05-30T06:22:19.363Z,999.41
2019-05-30T06:23:19.619Z,999.42
2019-05-30T06:24:19.809Z,999.43
2019-05-30T06:25:22.292Z,999.39
2019-05-30T06:26:20.277Z,999.39
2019-05-30T06:27:20.517Z,999.43
2019-05-30T06:28:21.974Z,999.40
2019-05-30T06:29:22.071Z,999.40
2019-05-30T06:30:22.336Z,999.41
2019-05-30T06:31:22.468Z,999.41
2019-05-30T06:32:22.920Z,999.39
2019-05-30T06:33:23.555Z,999.40
2019-05-30T06:34:32.755Z,999.44
2019-05-30T06:35:23.024Z,999.38
2019-05-30T06:36:23.055Z,999.38
2019-05-30T06:37:23.172Z,999.34
2019-05-30T06:38:23.193Z,999.38
2019-05-30T06:39:23.529Z,999.37
2019-05-30T06:40:23.773Z,999.39
2019-05-30T06:41:23.891Z,999.38
2019-05-30T06:42:24.131Z,999.38
2019-05-30T06:43:24.495Z,999.37
2019-05-30T06:44:24.601Z,999.37
2019-05-30T06:45:25.634Z,999.38
2019-05-30T06:46:25.143Z,999.43
2019-05-30T06:47:26.319Z,999.38
2019-05-30T06:48:26.848Z,999.35
2019-05-30T06:49:26.813Z,999.34
2019-05-30T06:50:26.870Z,999.31
2019-05-30T06:51:26.965Z,999.31
2019-05-30T06:52:27.099Z,999.32
2019-05-30T06:53:27.258Z,999.30
2019-05-30T06:54:27.820Z,999.29
2019-05-30T06:55:27.355Z,999.32
2019-05-30T06:56:27.549Z,999.31
2019-05-30T06:57:27.705Z,999.32
2019-05-30T06:58:41.416Z,999.31
2019-05-30T06:59:28.185Z,999.27
2019-05-30T07:00:28.420Z,999.26
2019-05-30T07:01:29.985Z,999.29
2019-05-30T07:02:30.262Z,999.27
2019-05-30T07:03:30.432Z,999.24
2019-05-30T07:04:39.326Z,999.23
2019-05-30T07:05:30.698Z,999.21
2019-05-30T07:06:31.385Z,999.27
2019-05-30T07:07:31.240Z,999.25
2019-05-30T07:08:30.881Z,999.18
2019-05-30T07:09:31.007Z,999.21
2019-05-30T07:10:31.136Z,999.23
2019-05-30T07:11:31.044Z,999.23
2019-05-30T07:12:31.270Z,999.19
2019-05-30T07:13:31.693Z,999.22
2019-05-30T07:14:31.733Z,999.24
2019-05-30T07:15:31.971Z,999.27
2019-05-30T07:16:32.198Z,999.23
2019-05-30T07:17:33.576Z,999.28
2019-05-30T07:18:35.405Z,999.25
2019-05-30T07:19:33.677Z,999.26
2019-05-30T07:20:33.835Z,999.26
2019-05-30T07:21:33.930Z,999.21
2019-05-30T07:22:33.884Z,999.20
2019-05-30T07:23:34.058Z,999.25
2019-05-30T07:24:34.075Z,999.22
2019-05-30T07:25:34.305Z,999.22
2019-05-30T07:26:34.550Z,999.21
2019-05-30T07:27:34.774Z,999.20
2019-05-30T07:28:35.006Z,999.18
2019-05-30T07:29:35.242Z,999.21
2019-05-30T07:30:35.472Z,999.19
2019-05-30T07:31:35.708Z,999.24
2019-05-30T07:32:35.942Z,999.24
2019-05-30T07:33:36.175Z,999.24
2019-05-30T07:34:36.407Z,999.23
2019-05-30T07:35:36.637Z,999.25
2019-05-30T07:36:36.869Z,999.27
2019-05-30T07:37:37.116Z,999.25
2019-05-30T07:38:37.343Z,999.24
2019-05-30T07:39:37.715Z,999.26
2019-05-30T07:40:37.804Z,999.25
2019-05-30T07:41:38.046Z,999.23
2019-05-30T07:42:38.263Z,999.27
2019-05-30T07:43:38.499Z,999.25
2019-05-30T07:44:38.729Z,999.26
2019-05-30T07:45:38.958Z,999.25
2019-05-30T07:46:39.193Z,999.25
2019-05-30T07:47:39.426Z,999.26
2019-05-30T07:48:39.661Z,999.25
2019-05-30T07:49:39.889Z,999.25
2019-05-30T07:50:40.119Z,999.22
2019-05-30T07:51:40.350Z,999.23
2019-05-30T07:52:40.587Z,999.24
2019-05-30T07:53:40.813Z,999.22
2019-05-30T07:54:41.043Z,999.22
2019-05-30T07:55:41.275Z,999.25
2019-05-30T07:56:41.508Z,999.23
2019-05-30T07:57:41.974Z,999.23
2019-05-30T07:58:41.971Z,999.21
2019-05-30T07:59:42.201Z,999.20
2019-05-30T08:00:42.441Z,999.16
2019-05-30T08:01:42.760Z,999.17
2019-05-30T08:02:42.898Z,999.15
2019-05-30T08:03:43.129Z,999.16
2019-05-30T08:04:46.796Z,999.14
2019-05-30T08:05:43.590Z,999.15
2019-05-30T08:06:43.826Z,999.15
2019-05-30T08:07:44.056Z,999.09
2019-05-30T08:08:44.288Z,999.08
2019-05-30T08:09:44.519Z,999.09
2019-05-30T08:10:44.747Z,999.10
2019-05-30T08:11:44.984Z,999.12
2019-05-30T08:12:45.220Z,999.09
2019-05-30T08:13:45.446Z,999.08
2019-05-30T08:14:45.696Z,999.13
2019-05-30T08:15:45.913Z,999.09
2019-05-30T08:16:46.144Z,999.06
2019-05-30T08:17:46.385Z,999.05
2019-05-30T08:18:46.618Z,999.01
2019-05-30T08:19:46.848Z,999.04
2019-05-30T08:20:47.075Z,999.01
2019-05-30T08:21:47.312Z,998.98
2019-05-30T08:22:47.543Z,999.01
2019-05-30T08:23:47.779Z,999.02
2019-05-30T08:24:48.008Z,998.98
2019-05-30T08:25:48.239Z,998.90
2019-05-30T08:26:48.478Z,998.95
2019-05-30T08:27:48.712Z,998.99
2019-05-30T08:28:48.943Z,998.97
2019-05-30T08:29:49.182Z,998.96
2019-05-30T08:30:49.407Z,998.94
2019-05-30T08:31:49.637Z,998.80
2019-05-30T08:32:49.872Z,998.87
2019-05-30T08:33:50.105Z,998.81
2019-05-30T08:34:50.338Z,998.86
2019-05-30T08:35:50.584Z,998.87
2019-05-30T08:36:50.807Z,998.92
2019-05-30T08:37:51.079Z,998.90
2019-05-30T08:38:51.292Z,998.85
2019-05-30T08:39:51.526Z,998.86
2019-05-30T08:40:51.753Z,998.83
2019-05-30T08:41:51.987Z,998.89
2019-05-30T08:42:52.210Z,998.77
2019-05-30T08:43:52.444Z,998.79
2019-05-30T08:44:52.679Z,998.79
2019-05-30T08:45:52.914Z,998.83
2019-05-30T08:46:53.144Z,998.87
2019-05-30T08:47:53.379Z,998.89
2019-05-30T08:48:53.609Z,998.84
2019-05-30T08:49:53.841Z,998.74
2019-05-30T08:50:54.076Z,998.83
2019-05-30T08:51:54.306Z,998.85
2019-05-30T08:52:54.555Z,998.82
2019-05-30T08:53:54.784Z,998.78
2019-05-30T08:54:55.014Z,998.84
2019-05-30T08:55:55.782Z,998.72
2019-05-30T08:56:55.484Z,998.72
2019-05-30T08:57:55.724Z,998.72
2019-05-30T08:58:55.946Z,998.70
2019-05-30T08:59:56.184Z,998.71
2019-05-30T09:00:56.415Z,998.72
2019-05-30T09:01:56.642Z,998.74
2019-05-30T09:02:56.873Z,998.78
2019-05-30T09:03:57.106Z,998.81
2019-05-30T09:04:57.337Z,998.78
2019-05-30T09:06:03.784Z,998.71
2019-05-30T09:06:57.805Z,998.70
2019-05-30T09:07:58.034Z,998.68
2019-05-30T09:08:58.276Z,998.70
2019-05-30T09:09:58.505Z,998.70
2019-05-30T09:10:58.738Z,998.79
2019-05-30T09:11:58.970Z,998.70
2019-05-30T09:12:59.199Z,998.76
2019-05-30T09:13:59.432Z,998.69
2019-05-30T09:14:59.667Z,998.67
2019-05-30T09:15:59.899Z,998.60
2019-05-30T09:17:00.130Z,998.58
2019-05-30T09:18:00.358Z,998.61
2019-05-30T09:19:00.599Z,998.65
2019-05-30T09:20:00.823Z,998.61
2019-05-30T09:21:01.055Z,998.66
2019-05-30T09:22:01.296Z,998.69
2019-05-30T09:23:01.525Z,998.66
2019-05-30T09:24:01.866Z,998.71
2019-05-30T09:25:01.991Z,998.64
2019-05-30T09:26:02.222Z,998.72
2019-05-30T09:27:02.470Z,998.68
2019-05-30T09:28:02.688Z,998.62
2019-05-30T09:29:03.831Z,998.69
2019-05-30T09:30:03.155Z,998.70
2019-05-30T09:31:03.382Z,998.67
2019-05-30T09:32:03.613Z,998.68
2019-05-30T09:33:03.857Z,998.67
2019-05-30T09:34:04.078Z,998.60
2019-05-30T09:35:04.313Z,998.63
2019-05-30T09:36:13.240Z,998.62
2019-05-30T09:37:04.782Z,998.62
2019-05-30T09:38:05.014Z,998.64
2019-05-30T09:39:05.246Z,998.73
2019-05-30T09:40:05.479Z,998.68
2019-05-30T09:41:05.712Z,998.65
2019-05-30T09:42:05.947Z,998.71
2019-05-30T09:43:06.181Z,998.67
2019-05-30T09:44:06.415Z,998.66
2019-05-30T09:45:06.647Z,998.76
2019-05-30T09:46:06.879Z,998.68
2019-05-30T09:47:07.110Z,998.77
2019-05-30T09:48:07.343Z,998.77
2019-05-30T09:49:07.579Z,998.78
2019-05-30T09:50:07.810Z,998.83
2019-05-30T09:51:08.043Z,998.80
2019-05-30T09:52:08.277Z,998.78
2019-05-30T09:53:08.510Z,998.76
2019-05-30T09:54:08.741Z,998.76
2019-05-30T09:55:08.977Z,998.76
2019-05-30T09:56:09.209Z,998.72
2019-05-30T09:57:09.447Z,998.75
2019-05-30T09:58:09.675Z,998.74
2019-05-30T09:59:09.911Z,998.80
2019-05-30T10:00:10.141Z,998.72
2019-05-30T10:01:10.380Z,998.72
2019-05-30T10:02:10.609Z,998.75
2019-05-30T10:03:10.840Z,998.77
2019-05-30T10:04:11.080Z,998.74
2019-05-30T10:05:11.319Z,998.76
2019-05-30T10:06:11.539Z,998.77
2019-05-30T10:07:11.770Z,998.74
2019-05-30T10:08:12.005Z,998.73
2019-05-30T10:09:12.240Z,998.77
2019-05-30T10:10:12.467Z,998.79
2019-05-30T10:11:15.982Z,998.78
2019-05-30T10:12:12.929Z,998.81
2019-05-30T10:13:13.174Z,998.79
2019-05-30T10:14:13.392Z,998.80
2019-05-30T10:15:13.641Z,998.78
2019-05-30T10:16:13.857Z,998.73
2019-05-30T10:17:14.092Z,998.69
2019-05-30T10:18:14.322Z,998.68
2019-05-30T10:19:14.557Z,998.66
2019-05-30T10:20:14.798Z,998.73
2019-05-30T10:21:15.025Z,998.75
2019-05-30T10:22:15.256Z,998.68
2019-05-30T10:23:15.489Z,998.72
2019-05-30T10:24:15.723Z,998.68
2019-05-30T10:25:15.956Z,998.65
2019-05-30T10:26:16.189Z,998.65
2019-05-30T10:27:16.427Z,998.60
2019-05-30T10:28:16.657Z,998.62
2019-05-30T10:29:16.893Z,998.67
2019-05-30T10:30:17.124Z,998.56
2019-05-30T10:31:17.355Z,998.62
2019-05-30T10:32:17.589Z,998.65
2019-05-30T10:33:17.823Z,998.64
2019-05-30T10:34:18.058Z,998.64
2019-05-30T10:35:18.293Z,998.66
2019-05-30T10:36:20.185Z,998.62
2019-05-30T10:37:18.757Z,998.59
2019-05-30T10:38:20.111Z,998.58
2019-05-30T10:39:19.224Z,998.56
2019-05-30T10:40:19.454Z,998.60
2019-05-30T10:41:19.686Z,998.59
2019-05-30T10:42:19.930Z,998.62
2019-05-30T10:43:20.160Z,998.62
2019-05-30T10:44:20.402Z,998.60
2019-05-30T10:45:20.627Z,998.58
2019-05-30T10:46:20.957Z,998.58
2019-05-30T10:47:21.122Z,998.61
2019-05-30T10:48:21.390Z,998.64
2019-05-30T10:49:34.181Z,998.61
2019-05-30T10:50:21.819Z,998.59
2019-05-30T10:51:22.054Z,998.59
2019-05-30T10:52:22.995Z,998.61
2019-05-30T10:53:22.477Z,998.63
2019-05-30T10:54:22.714Z,998.63
2019-05-30T10:55:22.944Z,998.65
2019-05-30T10:56:23.181Z,998.66
2019-05-30T10:57:23.412Z,998.64
2019-05-30T10:58:23.644Z,998.60
2019-05-30T10:59:23.897Z,998.58
2019-05-30T11:00:24.115Z,998.62
2019-05-30T11:01:24.349Z,998.63
2019-05-30T11:02:24.581Z,998.60
2019-05-30T11:03:24.817Z,998.60
2019-05-30T11:04:25.053Z,998.55
2019-05-30T11:05:25.285Z,998.66
2019-05-30T11:06:25.520Z,998.63
2019-05-30T11:07:25.753Z,998.61
2019-05-30T11:08:25.985Z,998.65
2019-05-30T11:09:26.219Z,998.61
2019-05-30T11:10:26.461Z,998.70
2019-05-30T11:11:26.683Z,998.65
2019-05-30T11:12:26.915Z,998.64
2019-05-30T11:13:27.149Z,998.63
2019-05-30T11:14:27.383Z,998.62
2019-05-30T11:15:27.626Z,998.61
2019-05-30T11:16:27.861Z,998.54
2019-05-30T11:17:28.087Z,998.50
2019-05-30T11:18:28.335Z,998.55
2019-05-30T11:19:28.562Z,998.55
2019-05-30T11:20:28.793Z,998.50
2019-05-30T11:21:29.030Z,998.47
2019-05-30T11:22:29.357Z,998.45
2019-05-30T11:23:29.517Z,998.48
2019-05-30T11:24:29.750Z,998.49
2019-05-30T11:25:29.992Z,998.53
2019-05-30T11:26:30.215Z,998.49
2019-05-30T11:27:30.453Z,998.50
2019-05-30T11:28:30.697Z,998.50
2019-05-30T11:29:30.956Z,998.48
2019-05-30T11:30:31.157Z,998.47
2019-05-30T11:31:31.391Z,998.48
2019-05-30T11:32:31.627Z,998.54
2019-05-30T11:33:31.861Z,998.48
2019-05-30T11:34:32.093Z,998.49
2019-05-30T11:35:32.328Z,998.49
2019-05-30T11:36:32.563Z,998.54
2019-05-30T11:37:32.794Z,998.55
2019-05-30T11:38:33.040Z,998.60
2019-05-30T11:39:33.271Z,998.61
2019-05-30T11:40:33.514Z,998.62
2019-05-30T11:41:33.747Z,998.61
2019-05-30T11:42:33.980Z,998.68
2019-05-30T11:43:34.213Z,998.64
2019-05-30T11:44:34.451Z,998.69
2019-05-30T11:45:34.681Z,998.66
2019-05-30T11:46:34.917Z,998.61
2019-05-30T11:47:35.151Z,998.64
2019-05-30T11:48:35.383Z,998.65
2019-05-30T11:49:35.616Z,998.69
2019-05-30T11:50:35.849Z,998.69
2019-05-30T11:51:36.085Z,998.70
2019-05-30T11:52:36.317Z,998.63
2019-05-30T11:53:36.552Z,998.64
2019-05-30T11:54:36.782Z,998.68
2019-05-30T11:55:37.017Z,998.64
2019-05-30T11:56:37.257Z,998.71
2019-05-30T11:57:37.485Z,998.72
2019-05-30T11:58:37.732Z,998.65
2019-05-30T11:59:37.951Z,998.71
2019-05-30T12:00:38.185Z,998.67
2019-05-30T12:01:38.419Z,998.72
2019-05-30T12:02:38.653Z,998.73
2019-05-30T12:03:38.886Z,998.74
2019-05-30T12:04:39.114Z,998.68
2019-05-30T12:05:39.356Z,998.72
2019-05-30T12:06:39.600Z,998.72
2019-05-30T12:07:39.824Z,998.72
2019-05-30T12:08:40.055Z,998.73
2019-05-30T12:09:40.290Z,998.82
2019-05-30T12:10:40.522Z,998.75
2019-05-30T12:11:40.759Z,998.77
2019-05-30T12:12:40.990Z,998.67
2019-05-30T12:13:41.226Z,998.76
2019-05-30T12:14:41.461Z,998.73
2019-05-30T12:15:41.704Z,998.74
2019-05-30T12:16:41.930Z,998.78
2019-05-30T12:17:42.159Z,998.78
2019-05-30T12:18:42.386Z,998.76
2019-05-30T12:19:42.625Z,998.76
2019-05-30T12:20:42.860Z,998.81
2019-05-30T12:21:43.090Z,998.78
2019-05-30T12:22:43.323Z,998.76
2019-05-30T12:23:43.555Z,998.82
2019-05-30T12:24:43.786Z,998.77
2019-05-30T12:25:44.024Z,998.84
2019-05-30T12:26:44.258Z,998.85
2019-05-30T12:27:44.489Z,998.80
2019-05-30T12:28:44.727Z,998.79
2019-05-30T12:29:44.965Z,998.84
2019-05-30T12:30:55.894Z,998.85
2019-05-30T12:31:45.418Z,998.81